Pagrindinis puslapis
METAR-TAF:

METAR-TAF

Oro uostai :

Woodward, Oklahoma, Jungtinės Amerikos Valstijos

platuma: 36-26-12N, ilguma: 099-31-16W, Aukštis: 667 m

Dabartinis oras

Ataskaita buvo paskelbta 37 minutes, ne 16:50 UTC
Vėjas 3 kt iš Rytų
Temperatūra 27°C
Drėgmė 42%
Slėgis 1022 hPa
Matomumas: 16.1 km
Giedras dangus

METAR: KWWR 031650Z AUTO 09003KT 10SM CLR 27/13 A3017 RMK AO2

Laikas: 12:27 (17:27 UTC)

Prognozė

Ataskaita buvo paskelbta 5 valandos ir 25 minutes, ne 12:02 UTC
Prognozė galioja nuo 03 metu 12 UTC su 04 metu 12 UTC
Vėjas 7 kt iš Rytų/Pietryčių
Matomumas: 9.7 km
Giedras dangus
migla
Laikinai
nuo 03 metu 12 UTC su 03 metu 15 UTC
Matomumas: 6.4 km
migla

TAF: KWWR 031202Z 0312/0412 12007KT 6SM HZ SKC TEMPO 0312/0315 4SM HZ

Orai ataskaitas ir orų prognozės (METAR, TAF).

turimą stotys yra geltonos ir raudonos taškus žemėlapyje.

Perkelti pele per norėdami pamatyti stoties vardą.

Tada spustelėkite, norėdami matyti oro stebėjimo ir prognozės.

Norėdami pakeisti žemėlapį: spustelėkite ant žalios mygtukų su juodo kryžiaus žemyn,; žalią mygtuką su brūkšneliu, jei norite nutolinti; arba žalių rodyklių gretimoms žemėlapius.


METAR-TAF: